createdAt,value
2018-06-13T00:01:34.611Z,3.80
2018-06-13T00:04:03.830Z,4.80
2018-06-13T00:06:33.059Z,4.10
2018-06-13T00:09:02.846Z,4.60
2018-06-13T00:11:32.050Z,5.00
2018-06-13T00:14:01.259Z,4.43
2018-06-13T00:16:30.493Z,4.83
2018-06-13T00:18:59.707Z,5.37
2018-06-13T00:21:28.954Z,5.50
2018-06-13T00:23:58.245Z,6.00
2018-06-13T00:26:27.575Z,5.50
2018-06-13T00:28:56.806Z,6.10
2018-06-13T00:31:26.062Z,5.40
2018-06-13T00:33:58.379Z,4.87
2018-06-13T00:36:27.603Z,4.90
2018-06-13T00:38:56.815Z,4.57
2018-06-13T00:41:26.039Z,4.70
2018-06-13T00:43:55.270Z,4.87
2018-06-13T00:46:24.491Z,5.30
2018-06-13T00:48:53.746Z,5.50
2018-06-13T00:51:22.974Z,6.20
2018-06-13T00:53:52.203Z,5.73
2018-06-13T00:56:29.046Z,6.60
2018-06-13T00:58:58.346Z,7.77
2018-06-13T01:01:27.574Z,7.07
2018-06-13T01:03:56.786Z,6.50
2018-06-13T01:06:26.028Z,6.00
2018-06-13T01:08:55.288Z,6.45
2018-06-13T01:11:24.517Z,6.77
2018-06-13T01:13:53.765Z,5.70
2018-06-13T01:16:22.973Z,6.07
2018-06-13T01:18:52.275Z,6.73
2018-06-13T01:21:21.477Z,6.80
2018-06-13T01:23:50.779Z,5.93
2018-06-13T01:26:22.888Z,7.33
2018-06-13T01:28:52.144Z,7.97
2018-06-13T01:31:52.685Z,7.37
2018-06-13T01:34:21.968Z,6.20
2018-06-13T01:36:51.174Z,6.37
2018-06-13T01:39:20.418Z,7.37
2018-06-13T01:41:49.642Z,8.47
2018-06-13T01:44:18.881Z,7.70
2018-06-13T01:46:48.099Z,7.97
2018-06-13T01:49:17.327Z,8.30
2018-06-13T01:51:46.539Z,7.37
2018-06-13T01:54:15.791Z,8.83
2018-06-13T01:56:44.994Z,8.77
2018-06-13T01:59:14.222Z,8.57
2018-06-13T02:01:43.438Z,7.93
2018-06-13T02:04:12.663Z,8.08
2018-06-13T02:06:41.885Z,8.60
2018-06-13T02:09:11.263Z,7.87
2018-06-13T02:11:40.527Z,8.23
2018-06-13T02:14:09.743Z,7.83
2018-06-13T02:16:38.958Z,8.83
2018-06-13T02:19:08.201Z,8.55
2018-06-13T02:21:37.542Z,7.97
2018-06-13T02:24:06.959Z,7.90
2018-06-13T02:26:36.167Z,7.60
2018-06-13T02:29:05.486Z,7.17
2018-06-13T02:31:34.742Z,7.30
2018-06-13T02:34:03.978Z,7.37
2018-06-13T02:36:33.199Z,7.10
2018-06-13T02:39:02.464Z,7.63
2018-06-13T02:41:31.678Z,7.50
2018-06-13T02:44:00.908Z,7.60
2018-06-13T02:46:30.126Z,7.30
2018-06-13T02:48:59.383Z,6.80
2018-06-13T02:51:28.611Z,7.17
2018-06-13T02:53:57.839Z,7.30
2018-06-13T02:56:27.055Z,6.90
2018-06-13T02:58:56.366Z,7.03
2018-06-13T03:01:25.575Z,7.53
2018-06-13T03:03:54.902Z,7.27
2018-06-13T03:06:24.126Z,7.57
2018-06-13T03:08:53.485Z,6.97
2018-06-13T03:11:22.796Z,7.23
2018-06-13T03:13:51.990Z,6.37
2018-06-13T03:16:21.223Z,6.40
2018-06-13T03:18:50.447Z,5.93
2018-06-13T03:21:19.688Z,6.17
2018-06-13T03:23:48.923Z,6.90
2018-06-13T03:26:18.213Z,7.07
2018-06-13T03:28:47.500Z,6.57
2018-06-13T03:31:16.815Z,6.73
2018-06-13T03:33:46.032Z,7.10
2018-06-13T03:36:15.232Z,6.80
2018-06-13T03:38:44.489Z,6.90
2018-06-13T03:41:13.715Z,6.90
2018-06-13T03:43:42.934Z,7.40
2018-06-13T03:46:12.175Z,6.60
2018-06-13T03:48:41.404Z,6.80
2018-06-13T03:51:10.643Z,7.03
2018-06-13T03:53:39.874Z,7.20
2018-06-13T03:56:09.274Z,7.03
2018-06-13T03:58:38.535Z,7.27
2018-06-13T04:01:07.793Z,7.47
2018-06-13T04:03:37.079Z,6.83
2018-06-13T04:06:06.329Z,7.03
2018-06-13T04:08:35.570Z,7.20
2018-06-13T04:11:04.798Z,7.70
2018-06-13T04:13:34.035Z,8.37
2018-06-13T04:16:03.278Z,8.63
2018-06-13T04:18:32.508Z,8.53
2018-06-13T04:21:01.752Z,8.75
2018-06-13T04:23:30.989Z,8.20
2018-06-13T04:26:00.229Z,8.37
2018-06-13T04:28:29.492Z,8.47
2018-06-13T04:30:58.788Z,7.70
2018-06-13T04:33:28.001Z,8.33
2018-06-13T04:35:57.236Z,7.93
2018-06-13T04:38:26.466Z,7.83
2018-06-13T04:40:55.710Z,8.33
2018-06-13T04:43:24.918Z,8.93
2018-06-13T04:45:54.207Z,8.10
2018-06-13T04:48:23.451Z,7.67
2018-06-13T04:50:52.683Z,7.57
2018-06-13T04:53:21.903Z,6.23
2018-06-13T04:55:51.130Z,5.00
2018-06-13T04:58:20.370Z,3.90
2018-06-13T05:00:49.558Z,3.60
2018-06-13T05:03:18.798Z,3.63
2018-06-13T05:05:48.027Z,3.13
2018-06-13T05:08:17.242Z,2.97
2018-06-13T05:10:46.485Z,2.90
2018-06-13T05:13:15.700Z,3.13
2018-06-13T05:15:44.916Z,3.40
2018-06-13T05:18:14.195Z,4.00
2018-06-13T05:20:43.534Z,4.20
2018-06-13T05:23:12.745Z,4.90
2018-06-13T05:25:42.093Z,5.30
2018-06-13T05:28:11.342Z,5.77
2018-06-13T05:30:40.599Z,6.60
2018-06-13T05:33:09.842Z,6.90
2018-06-13T05:35:39.126Z,6.90
2018-06-13T05:38:08.372Z,6.75
2018-06-13T05:40:37.643Z,6.50
2018-06-13T05:43:06.865Z,6.07
2018-06-13T05:45:36.099Z,7.23
2018-06-13T05:48:05.460Z,7.30
2018-06-13T05:50:34.686Z,7.70
2018-06-13T05:53:03.924Z,7.47
2018-06-13T05:55:33.164Z,7.90
2018-06-13T05:58:02.393Z,8.00
2018-06-13T06:00:31.593Z,6.83
2018-06-13T06:03:01.005Z,6.70
2018-06-13T06:05:30.213Z,7.03
2018-06-13T06:07:59.461Z,7.90
2018-06-13T06:10:28.734Z,7.00
2018-06-13T06:12:57.939Z,7.87
2018-06-13T06:15:27.139Z,8.00
2018-06-13T06:17:56.374Z,7.63
2018-06-13T06:20:25.580Z,7.30
2018-06-13T06:22:55.235Z,7.63
2018-06-13T06:25:24.469Z,7.20
2018-06-13T06:27:53.672Z,6.50
2018-06-13T06:30:22.903Z,6.63
2018-06-13T06:32:52.157Z,6.37
2018-06-13T06:35:21.165Z,6.63
2018-06-13T06:37:50.407Z,5.67
2018-06-13T06:40:19.657Z,5.80
2018-06-13T06:42:48.879Z,6.30
2018-06-13T06:45:18.096Z,6.13
2018-06-13T06:47:47.397Z,6.65
2018-06-13T06:50:16.588Z,6.70
2018-06-13T06:52:45.819Z,6.33
2018-06-13T06:55:15.098Z,6.50
2018-06-13T06:57:44.282Z,6.60
2018-06-13T07:00:13.498Z,5.80
2018-06-13T07:02:42.957Z,6.20
2018-06-13T07:05:12.143Z,6.37
2018-06-13T07:07:41.360Z,6.40
2018-06-13T07:10:10.599Z,6.33
2018-06-13T07:12:39.816Z,6.03
2018-06-13T07:15:09.241Z,6.20
2018-06-13T07:17:38.467Z,6.53
2018-06-13T07:20:07.692Z,6.37
2018-06-13T07:22:36.935Z,5.00
2018-06-13T07:25:06.174Z,5.70
2018-06-13T07:27:35.435Z,5.63
2018-06-13T07:30:04.740Z,5.90
2018-06-13T07:32:34.018Z,5.97
2018-06-13T07:35:03.286Z,6.13
2018-06-13T07:37:32.498Z,6.00
2018-06-13T07:40:01.722Z,6.50
2018-06-13T07:42:30.946Z,5.80
2018-06-13T07:45:00.158Z,4.70
2018-06-13T07:47:29.438Z,4.10
2018-06-13T07:49:58.639Z,3.20
2018-06-13T07:52:27.899Z,3.80
2018-06-13T07:54:57.124Z,3.70
2018-06-13T07:57:32.986Z,3.40
2018-06-13T08:00:02.203Z,3.20
2018-06-13T08:02:31.550Z,3.00
2018-06-13T08:05:00.803Z,2.97
2018-06-13T08:07:30.011Z,3.60
2018-06-13T08:09:59.334Z,3.70
2018-06-13T08:12:28.547Z,4.20
2018-06-13T08:14:57.775Z,4.50
2018-06-13T08:17:27.072Z,4.40
2018-06-13T08:19:56.298Z,4.47
2018-06-13T08:22:25.589Z,5.13
2018-06-13T08:24:55.878Z,5.10
2018-06-13T08:27:25.099Z,4.70
2018-06-13T08:29:55.441Z,4.22
2018-06-13T08:32:24.735Z,5.10
2018-06-13T08:34:54.053Z,4.93
2018-06-13T08:37:23.270Z,5.22
2018-06-13T08:39:52.516Z,6.10
2018-06-13T08:42:21.718Z,6.97
2018-06-13T08:44:50.974Z,7.40
2018-06-13T08:47:20.294Z,7.90
2018-06-13T08:49:49.575Z,9.00
2018-06-13T08:52:18.782Z,7.90
2018-06-13T08:54:48.006Z,7.47
2018-06-13T08:57:17.222Z,8.00
2018-06-13T08:59:46.439Z,8.97
2018-06-13T09:02:15.678Z,9.60
2018-06-13T09:04:44.911Z,9.33
2018-06-13T09:07:14.142Z,10.63
2018-06-13T09:09:43.364Z,11.23
2018-06-13T09:12:12.599Z,11.30
2018-06-13T09:14:41.795Z,12.30
2018-06-13T09:17:11.018Z,11.37
2018-06-13T09:19:40.235Z,9.70
2018-06-13T09:22:09.511Z,11.17
2018-06-13T09:24:38.815Z,11.00
2018-06-13T09:27:08.109Z,10.33
2018-06-13T09:29:37.328Z,11.50
2018-06-13T09:32:06.542Z,12.00
2018-06-13T09:34:35.827Z,12.07
2018-06-13T09:37:05.040Z,12.73
2018-06-13T09:39:34.275Z,15.00
2018-06-13T09:42:03.297Z,17.00
2018-06-13T09:44:32.551Z,16.70
2018-06-13T09:47:06.904Z,18.50
2018-06-13T09:49:31.004Z,15.67
2018-06-13T09:52:00.215Z,16.40
2018-06-13T09:54:29.447Z,16.90
2018-06-13T09:56:58.651Z,17.07
2018-06-13T09:59:33.166Z,19.23
2018-06-13T10:02:07.557Z,19.90
2018-06-13T10:04:36.832Z,21.93
2018-06-13T10:07:06.068Z,21.20
2018-06-13T10:09:39.844Z,22.13
2018-06-13T10:12:13.481Z,22.50
2018-06-13T10:14:47.135Z,24.13
2018-06-13T10:17:20.682Z,21.83
2018-06-13T10:19:53.867Z,21.20
2018-06-13T10:22:23.074Z,22.57
2018-06-13T10:24:52.320Z,20.87
2018-06-13T10:27:26.804Z,19.90
2018-06-13T10:29:56.033Z,20.97
2018-06-13T10:32:25.229Z,21.77
2018-06-13T10:34:54.462Z,23.13
2018-06-13T10:37:23.495Z,23.27
2018-06-13T10:39:52.748Z,23.13
2018-06-13T10:42:22.030Z,26.43
2018-06-13T10:44:51.255Z,23.50
2018-06-13T10:47:20.500Z,22.57
2018-06-13T10:49:49.734Z,21.53
2018-06-13T10:52:18.951Z,23.20
2018-06-13T10:54:48.463Z,22.75
2018-06-13T10:57:17.808Z,25.50
2018-06-13T10:59:47.038Z,24.73
2018-06-13T11:02:16.268Z,23.93
2018-06-13T11:04:45.529Z,24.87
2018-06-13T11:07:14.505Z,23.40
2018-06-13T11:09:43.716Z,22.37
2018-06-13T11:12:12.970Z,21.10
2018-06-13T11:14:42.192Z,21.23
2018-06-13T11:17:11.545Z,20.73
2018-06-13T11:19:40.852Z,21.90
2018-06-13T11:22:10.075Z,21.00
2018-06-13T11:24:39.278Z,23.07
2018-06-13T11:27:08.504Z,26.00
2018-06-13T11:29:37.731Z,21.97
2018-06-13T11:32:07.066Z,23.07
2018-06-13T11:34:36.326Z,24.60
2018-06-13T11:37:05.934Z,23.62
2018-06-13T11:39:35.189Z,21.83
2018-06-13T11:42:04.483Z,20.40
2018-06-13T11:44:33.690Z,23.07
2018-06-13T11:47:03.078Z,23.83
2018-06-13T11:49:33.099Z,22.43
2018-06-13T11:52:03.812Z,23.20
2018-06-13T11:54:33.071Z,24.07
2018-06-13T11:57:02.553Z,28.03
2018-06-13T11:59:31.775Z,22.95
2018-06-13T12:02:00.988Z,22.87
2018-06-13T12:04:30.240Z,22.90
2018-06-13T12:06:59.443Z,17.73
2018-06-13T12:09:28.676Z,23.43
2018-06-13T12:11:57.935Z,22.60
2018-06-13T12:14:27.157Z,24.17
2018-06-13T12:16:56.399Z,26.87
2018-06-13T12:19:25.605Z,27.93
2018-06-13T12:21:54.826Z,28.90
2018-06-13T12:24:24.086Z,29.47
2018-06-13T12:26:53.354Z,32.37
2018-06-13T12:29:23.815Z,31.90
2018-06-13T12:31:53.072Z,33.00
2018-06-13T12:34:22.397Z,36.70
2018-06-13T12:36:51.595Z,30.10
2018-06-13T12:39:20.832Z,28.23
2018-06-13T12:41:50.119Z,29.40
2018-06-13T12:44:19.107Z,30.63
2018-06-13T12:46:48.387Z,29.70
2018-06-13T12:49:17.677Z,30.20
2018-06-13T12:51:46.998Z,28.23
2018-06-13T12:54:16.226Z,27.77
2018-06-13T12:56:45.358Z,26.93
2018-06-13T12:59:14.588Z,24.87
2018-06-13T13:01:43.786Z,23.77
2018-06-13T13:04:13.015Z,26.43
2018-06-13T13:06:42.243Z,28.53
2018-06-13T13:09:13.296Z,29.02
2018-06-13T13:11:43.091Z,27.10
2018-06-13T13:14:12.508Z,27.33
2018-06-13T13:16:41.491Z,26.07
2018-06-13T13:19:10.910Z,37.17
2018-06-13T13:21:40.149Z,31.47
2018-06-13T13:24:09.426Z,27.17
2018-06-13T13:26:38.663Z,38.83
2018-06-13T13:29:07.899Z,28.87
2018-06-13T13:31:37.100Z,28.37
2018-06-13T13:34:06.342Z,25.60
2018-06-13T13:36:35.588Z,28.70
2018-06-13T13:39:07.714Z,30.53
2018-06-13T13:41:38.222Z,42.08
2018-06-13T13:44:07.466Z,28.13
2018-06-13T13:46:36.680Z,31.80
2018-06-13T13:49:06.237Z,23.40
2018-06-13T13:51:35.512Z,22.70
2018-06-13T13:54:04.831Z,22.60
2018-06-13T13:56:33.983Z,23.80
2018-06-13T13:59:03.210Z,22.33
2018-06-13T14:01:32.476Z,24.23
2018-06-13T14:04:01.739Z,26.37
2018-06-13T14:06:30.955Z,27.87
2018-06-13T14:09:00.191Z,26.27
2018-06-13T14:11:29.419Z,25.27
2018-06-13T14:13:58.639Z,28.00
2018-06-13T14:16:27.858Z,25.93
2018-06-13T14:18:57.193Z,23.67
2018-06-13T14:21:26.430Z,22.50
2018-06-13T14:23:55.730Z,23.13
2018-06-13T14:26:25.063Z,24.73
2018-06-13T14:28:54.499Z,22.90
2018-06-13T14:31:23.743Z,25.87
2018-06-13T14:33:53.069Z,23.33
2018-06-13T14:36:22.307Z,25.67
2018-06-13T14:38:51.559Z,33.03
2018-06-13T14:41:20.782Z,24.80
2018-06-13T14:43:50.091Z,25.23
2018-06-13T14:46:19.386Z,21.80
2018-06-13T14:48:48.680Z,20.73
2018-06-13T14:51:17.978Z,22.73
2018-06-13T14:53:47.197Z,22.40
2018-06-13T14:56:21.678Z,24.37
2018-06-13T14:58:50.924Z,24.37
2018-06-13T15:01:20.160Z,23.50
2018-06-13T15:03:49.382Z,22.10
2018-06-13T15:06:18.666Z,22.17
2018-06-13T15:08:47.891Z,22.30
2018-06-13T15:11:17.132Z,20.33
2018-06-13T15:13:46.406Z,21.43
2018-06-13T15:16:15.697Z,22.53
2018-06-13T15:18:45.099Z,20.53
2018-06-13T15:21:14.425Z,20.80
2018-06-13T15:23:43.729Z,20.83
2018-06-13T15:26:13.093Z,22.00
2018-06-13T15:28:42.440Z,19.23
2018-06-13T15:31:12.983Z,19.87
2018-06-13T15:33:42.307Z,20.12
2018-06-13T15:36:11.526Z,18.90
2018-06-13T15:38:40.760Z,18.83
2018-06-13T15:41:09.991Z,19.40
2018-06-13T15:43:39.215Z,20.53
2018-06-13T15:46:08.439Z,21.93
2018-06-13T15:48:37.638Z,19.33
2018-06-13T15:51:06.869Z,20.10
2018-06-13T15:53:36.209Z,17.67
2018-06-13T15:56:05.951Z,20.17
2018-06-13T15:58:35.166Z,21.23
2018-06-13T16:01:04.394Z,19.67
2018-06-13T16:03:33.619Z,20.33
2018-06-13T16:06:02.941Z,21.17
2018-06-13T16:08:32.162Z,20.83
2018-06-13T16:11:01.430Z,18.73
2018-06-13T16:13:30.644Z,18.00
2018-06-13T16:15:59.871Z,16.67
2018-06-13T16:18:29.069Z,16.80
2018-06-13T16:20:58.323Z,15.80
2018-06-13T16:23:27.550Z,15.97
2018-06-13T16:25:56.782Z,16.43
2018-06-13T16:28:26.006Z,15.90
2018-06-13T16:30:55.251Z,17.27
2018-06-13T16:33:24.746Z,17.03
2018-06-13T16:35:54.035Z,16.23
2018-06-13T16:38:23.275Z,16.52
2018-06-13T16:40:52.530Z,16.57
2018-06-13T16:43:21.770Z,16.93
2018-06-13T16:45:51.077Z,16.57
2018-06-13T16:48:20.317Z,16.47
2018-06-13T16:51:06.445Z,16.30
2018-06-13T16:53:53.920Z,17.17
2018-06-13T16:56:23.258Z,16.33
2018-06-13T16:58:52.568Z,17.37
2018-06-13T17:01:22.681Z,16.37
2018-06-13T17:03:52.696Z,16.73
2018-06-13T17:06:21.979Z,16.53
2018-06-13T17:08:51.507Z,16.10
2018-06-13T17:11:20.845Z,16.63
2018-06-13T17:13:50.067Z,18.00
2018-06-13T17:16:19.294Z,16.13
2018-06-13T17:18:48.337Z,14.00
2018-06-13T17:21:17.558Z,15.80
2018-06-13T17:23:46.800Z,17.97
2018-06-13T17:26:16.022Z,17.97
2018-06-13T17:28:45.015Z,17.23
2018-06-13T17:31:14.250Z,17.13
2018-06-13T17:33:43.493Z,16.17
2018-06-13T17:36:12.778Z,17.20
2018-06-13T17:38:41.988Z,17.03
2018-06-13T17:41:11.552Z,17.92
2018-06-13T17:43:40.763Z,17.70
2018-06-13T17:46:10.010Z,17.93
2018-06-13T17:48:39.238Z,18.23
2018-06-13T17:51:08.474Z,16.53
2018-06-13T17:53:37.693Z,17.80
2018-06-13T17:56:06.924Z,19.37
2018-06-13T17:58:36.143Z,16.97
2018-06-13T18:01:05.384Z,16.77
2018-06-13T18:03:34.633Z,17.37
2018-06-13T18:06:03.856Z,17.10
2018-06-13T18:08:33.081Z,18.37
2018-06-13T18:11:02.312Z,18.20
2018-06-13T18:13:31.523Z,17.63
2018-06-13T18:16:00.735Z,16.65
2018-06-13T18:18:30.023Z,18.70
2018-06-13T18:20:59.247Z,17.80
2018-06-13T18:23:28.498Z,18.80
2018-06-13T18:25:57.715Z,20.10
2018-06-13T18:28:26.943Z,20.27
2018-06-13T18:30:56.151Z,21.53
2018-06-13T18:33:25.386Z,23.10
2018-06-13T18:35:54.594Z,22.97
2018-06-13T18:38:23.838Z,22.07
2018-06-13T18:40:53.050Z,21.60
2018-06-13T18:43:22.275Z,23.17
2018-06-13T18:45:51.478Z,20.13
2018-06-13T18:48:35.544Z,20.23
2018-06-13T18:51:04.753Z,21.70
2018-06-13T18:53:34.274Z,20.90
2018-06-13T18:56:03.482Z,23.97
2018-06-13T18:58:32.743Z,20.87
2018-06-13T19:14:18.030Z,21.37
2018-06-13T19:16:47.412Z,21.40
2018-06-13T19:19:16.663Z,22.77
2018-06-13T19:21:45.863Z,25.67
2018-06-13T19:24:15.079Z,22.83
2018-06-13T19:26:44.313Z,18.55
2018-06-13T19:29:13.546Z,18.03
2018-06-13T19:31:42.755Z,17.77
2018-06-13T19:34:11.987Z,18.77
2018-06-13T19:36:41.214Z,18.62
2018-06-13T19:39:11.009Z,18.87
2018-06-13T19:41:41.472Z,17.93
2018-06-13T19:44:10.686Z,18.33
2018-06-13T19:46:40.094Z,19.13
2018-06-13T19:49:09.320Z,17.67
2018-06-13T19:51:38.531Z,17.47
2018-06-13T19:54:12.949Z,18.07
2018-06-13T19:56:42.271Z,17.40
2018-06-13T19:59:11.518Z,17.90
2018-06-13T20:01:40.731Z,18.30
2018-06-13T20:04:15.313Z,17.67
2018-06-13T20:06:44.543Z,18.07
2018-06-13T20:09:14.533Z,18.67
2018-06-13T20:11:43.734Z,18.20
2018-06-13T20:14:18.136Z,18.43
2018-06-13T20:16:53.659Z,17.92
2018-06-13T20:19:28.243Z,17.43
2018-06-13T20:21:58.894Z,19.27
2018-06-13T20:24:28.137Z,19.63
2018-06-13T20:27:02.479Z,19.60
2018-06-13T20:29:36.995Z,18.63
2018-06-13T20:32:07.497Z,19.37
2018-06-13T20:34:36.744Z,21.07
2018-06-13T20:37:06.204Z,20.77
2018-06-13T20:39:35.425Z,19.93
2018-06-13T20:42:04.642Z,19.23
2018-06-13T20:44:33.896Z,18.90
2018-06-13T20:47:03.127Z,19.30
2018-06-13T20:49:32.390Z,18.67
2018-06-13T20:52:01.655Z,18.62
2018-06-13T20:54:30.950Z,16.90
2018-06-13T20:57:00.172Z,19.33
2018-06-13T20:59:29.479Z,18.33
2018-06-13T21:01:58.701Z,18.17
2018-06-13T21:04:27.934Z,19.80
2018-06-13T21:06:57.153Z,18.50
2018-06-13T21:09:26.471Z,18.83
2018-06-13T21:11:55.683Z,19.37
2018-06-13T21:14:24.908Z,19.20
2018-06-13T21:16:53.894Z,19.00
2018-06-13T21:19:23.125Z,19.23
2018-06-13T21:21:52.388Z,19.23
2018-06-13T21:24:21.594Z,19.95
2018-06-13T21:26:50.832Z,20.60
2018-06-13T21:29:20.058Z,18.10
2018-06-13T21:31:49.294Z,16.93
2018-06-13T21:34:18.543Z,17.03
2018-06-13T21:36:47.775Z,16.73
2018-06-13T21:39:16.999Z,16.97
2018-06-13T21:41:46.314Z,16.93
2018-06-13T21:44:15.598Z,16.33
2018-06-13T21:46:44.858Z,17.67
2018-06-13T21:49:14.096Z,17.93
2018-06-13T21:51:43.411Z,16.40
2018-06-13T21:54:13.249Z,17.10
2018-06-13T21:56:42.479Z,16.67
2018-06-13T21:59:11.707Z,18.07
2018-06-13T22:01:40.924Z,17.23
2018-06-13T22:04:10.136Z,18.07
2018-06-13T22:06:39.366Z,17.33
2018-06-13T22:09:10.496Z,15.27
2018-06-13T22:11:44.944Z,15.53
2018-06-13T22:14:14.184Z,15.97
2018-06-13T22:16:43.418Z,16.80
2018-06-13T22:19:12.777Z,17.43
2018-06-13T22:21:42.019Z,18.70
2018-06-13T22:24:11.794Z,18.10
2018-06-13T22:26:41.017Z,18.23
2018-06-13T22:29:10.275Z,17.87
2018-06-13T22:31:39.526Z,16.80
2018-06-13T22:34:08.896Z,17.07
2018-06-13T22:36:41.189Z,18.87
2018-06-13T22:39:12.215Z,18.93
2018-06-13T22:41:41.853Z,17.57
2018-06-13T22:44:11.062Z,19.73
2018-06-13T22:46:40.448Z,18.53
2018-06-13T22:49:09.619Z,19.03
2018-06-13T22:51:39.806Z,19.40
2018-06-13T22:54:09.019Z,18.30
2018-06-13T22:56:38.350Z,18.07
2018-06-13T22:59:07.567Z,18.80
2018-06-13T23:01:36.782Z,18.67
2018-06-13T23:04:06.282Z,17.17
2018-06-13T23:06:35.499Z,18.50
2018-06-13T23:09:07.030Z,19.03
2018-06-13T23:11:36.441Z,19.15
2018-06-13T23:14:05.658Z,18.20
2018-06-13T23:16:34.885Z,18.60
2018-06-13T23:19:04.098Z,19.40
2018-06-13T23:21:33.326Z,19.47
2018-06-13T23:24:02.581Z,19.70
2018-06-13T23:26:31.816Z,17.70
2018-06-13T23:29:01.037Z,20.23
2018-06-13T23:31:30.277Z,20.10
2018-06-13T23:33:59.504Z,19.33
2018-06-13T23:36:28.746Z,19.13
2018-06-13T23:38:57.949Z,19.80
2018-06-13T23:41:27.171Z,21.20
2018-06-13T23:43:56.435Z,20.53
2018-06-13T23:46:25.661Z,20.85
2018-06-13T23:48:54.903Z,22.53
2018-06-13T23:51:24.228Z,22.77
2018-06-13T23:53:53.550Z,19.63
2018-06-13T23:56:22.790Z,21.63
2018-06-13T23:58:52.172Z,20.83
